createdAt,value
2023-07-08T00:00:42.789Z,15.50
2023-07-08T00:02:06.770Z,15.42
2023-07-08T00:03:37.340Z,15.43
2023-07-08T00:04:33.673Z,15.39
2023-07-08T00:05:14.396Z,15.36
2023-07-08T00:06:55.595Z,15.35
2023-07-08T00:07:34.259Z,15.14
2023-07-08T00:08:20.730Z,15.30
2023-07-08T00:09:20.929Z,15.28
2023-07-08T00:09:58.853Z,15.29
2023-07-08T00:10:51.687Z,15.26
2023-07-08T00:11:48.002Z,15.24
2023-07-08T00:12:25.272Z,15.25
2023-07-08T00:13:22.294Z,15.16
2023-07-08T00:14:12.343Z,15.23
2023-07-08T00:14:47.150Z,15.23
2023-07-08T00:15:36.210Z,15.23
2023-07-08T00:16:20.395Z,15.21
2023-07-08T00:16:54.409Z,15.16
2023-07-08T00:17:32.579Z,15.21
2023-07-08T00:18:20.085Z,15.21
2023-07-08T00:18:57.037Z,15.19
2023-07-08T00:19:33.392Z,15.19
2023-07-08T00:20:26.399Z,15.17
2023-07-08T00:21:12.567Z,15.16
2023-07-08T00:21:53.344Z,15.15
2023-07-08T00:22:36.199Z,15.03
2023-07-08T00:23:13.144Z,15.13
2023-07-08T00:24:04.219Z,15.13
2023-07-08T00:24:45.600Z,15.11
2023-07-08T00:25:23.537Z,15.10
2023-07-08T00:26:23.862Z,15.07
2023-07-08T00:27:05.361Z,15.06
2023-07-08T00:27:44.510Z,15.05
2023-07-08T00:28:22.809Z,15.05
2023-07-08T00:29:04.101Z,15.03
2023-07-08T00:29:45.342Z,15.00
2023-07-08T00:30:33.057Z,14.95
2023-07-08T00:31:14.751Z,14.98
2023-07-08T00:31:51.777Z,14.88
2023-07-08T00:32:33.345Z,14.94
2023-07-08T00:33:10.636Z,14.95
2023-07-08T00:33:44.452Z,14.94
2023-07-08T00:34:19.804Z,14.94
2023-07-08T00:34:57.322Z,14.93
2023-07-08T00:35:37.121Z,14.87
2023-07-08T00:36:14.173Z,14.94
2023-07-08T00:36:52.598Z,14.93
2023-07-08T00:37:32.367Z,14.91
2023-07-08T00:38:16.601Z,14.89
2023-07-08T00:38:50.750Z,14.86
2023-07-08T00:39:25.099Z,14.86
2023-07-08T00:39:59.170Z,14.86
2023-07-08T00:40:34.276Z,14.85
2023-07-08T00:41:12.416Z,14.84
2023-07-08T00:41:47.026Z,14.84
2023-07-08T00:42:25.766Z,14.78
2023-07-08T00:43:04.183Z,14.71
2023-07-08T00:43:43.929Z,14.69
2023-07-08T00:44:24.864Z,14.66
2023-07-08T00:45:06.682Z,14.63
2023-07-08T00:46:01.960Z,14.60
2023-07-08T00:46:48.514Z,14.47
2023-07-08T00:47:29.807Z,14.55
2023-07-08T00:48:21.341Z,14.54
2023-07-08T00:49:11.739Z,14.51
2023-07-08T00:50:23.161Z,14.49
2023-07-08T00:51:00.608Z,14.46
2023-07-08T00:51:35.676Z,14.40
2023-07-08T00:52:20.904Z,14.37
2023-07-08T00:53:23.317Z,14.47
2023-07-08T00:53:56.847Z,14.45
2023-07-08T00:54:30.255Z,14.45
2023-07-08T00:55:10.629Z,14.46
2023-07-08T00:55:44.172Z,14.46
2023-07-08T00:56:19.504Z,14.46
2023-07-08T00:57:00.169Z,14.47
2023-07-08T00:57:38.827Z,14.47
2023-07-08T00:58:12.339Z,14.46
2023-07-08T00:58:55.929Z,14.46
2023-07-08T00:59:34.204Z,14.45
2023-07-08T01:00:13.368Z,14.43
2023-07-08T01:00:47.487Z,14.41
2023-07-08T01:01:21.397Z,14.40
2023-07-08T01:01:57.196Z,14.38
2023-07-08T01:02:33.459Z,14.37
2023-07-08T01:03:07.492Z,14.35
2023-07-08T01:03:52.742Z,14.35
2023-07-08T01:04:34.053Z,14.33
2023-07-08T01:05:14.406Z,14.31
2023-07-08T01:05:48.856Z,14.28
2023-07-08T01:06:35.666Z,14.29
2023-07-08T01:07:13.422Z,14.28
2023-07-08T01:08:02.244Z,14.26
2023-07-08T01:09:03.789Z,14.24
2023-07-08T01:09:47.573Z,14.21
2023-07-08T01:10:55.864Z,14.19
2023-07-08T01:11:40.620Z,14.12
2023-07-08T01:12:36.188Z,14.08
2023-07-08T01:14:12.726Z,14.06
2023-07-08T01:14:49.338Z,14.06
2023-07-08T01:15:39.093Z,14.05
2023-07-08T01:16:23.278Z,14.06
2023-07-08T01:17:15.258Z,14.04
2023-07-08T01:17:57.313Z,14.06
2023-07-08T01:18:37.436Z,14.08
2023-07-08T01:19:19.244Z,14.10
2023-07-08T01:19:57.128Z,14.05
2023-07-08T01:20:33.535Z,14.05
2023-07-08T01:21:32.931Z,14.15
2023-07-08T01:22:19.616Z,14.13
2023-07-08T01:22:53.623Z,14.10
2023-07-08T01:23:30.138Z,14.12
2023-07-08T01:24:12.708Z,14.09
2023-07-08T01:24:49.509Z,14.09
2023-07-08T01:25:28.116Z,13.98
2023-07-08T01:26:10.046Z,14.06
2023-07-08T01:26:50.013Z,14.06
2023-07-08T01:27:23.556Z,14.06
2023-07-08T01:27:59.290Z,14.06
2023-07-08T01:28:34.632Z,14.07
2023-07-08T01:29:11.823Z,14.10
2023-07-08T01:29:47.822Z,14.10
2023-07-08T01:30:24.713Z,14.10
2023-07-08T01:31:09.080Z,14.08
2023-07-08T01:31:50.332Z,14.08
2023-07-08T01:32:24.497Z,13.99
2023-07-08T01:33:06.392Z,14.08
2023-07-08T01:33:58.257Z,14.05
2023-07-08T01:34:44.089Z,13.91
2023-07-08T01:35:22.476Z,14.02
2023-07-08T01:35:58.375Z,13.98
2023-07-08T01:36:49.940Z,14.01
2023-07-08T01:37:24.894Z,13.89
2023-07-08T01:38:05.996Z,13.96
2023-07-08T01:38:46.933Z,13.97
2023-07-08T01:39:23.339Z,13.96
2023-07-08T01:40:01.019Z,13.94
2023-07-08T01:40:38.090Z,13.89
2023-07-08T01:41:20.567Z,13.99
2023-07-08T01:42:05.467Z,14.00
2023-07-08T01:42:50.304Z,13.97
2023-07-08T01:43:30.209Z,13.95
2023-07-08T01:44:33.390Z,13.98
2023-07-08T01:45:21.274Z,13.95
2023-07-08T01:47:39.285Z,13.93
2023-07-08T01:48:53.140Z,13.86
2023-07-08T01:50:48.595Z,13.83
2023-07-08T01:51:23.402Z,13.78
2023-07-08T01:52:00.142Z,13.79
2023-07-08T01:52:34.531Z,13.82
2023-07-08T01:53:13.509Z,13.83
2023-07-08T01:53:47.038Z,13.81
2023-07-08T01:54:20.610Z,13.82
2023-07-08T01:54:57.491Z,13.81
2023-07-08T01:55:31.616Z,13.81
2023-07-08T01:56:06.623Z,13.79
2023-07-08T01:56:40.215Z,13.80
2023-07-08T01:57:13.775Z,13.81
2023-07-08T01:57:47.360Z,13.80
2023-07-08T01:58:23.276Z,13.78
2023-07-08T01:58:56.870Z,13.77
2023-07-08T01:59:30.800Z,13.75
2023-07-08T02:00:05.097Z,13.75
2023-07-08T02:00:49.909Z,13.73
2023-07-08T02:01:23.482Z,13.73
2023-07-08T02:01:57.494Z,13.72
2023-07-08T02:02:31.496Z,13.71
2023-07-08T02:03:05.468Z,13.72
2023-07-08T02:03:39.031Z,13.71
2023-07-08T02:04:12.589Z,13.71
2023-07-08T02:04:46.667Z,13.69
2023-07-08T02:05:20.965Z,13.69
2023-07-08T02:06:24.548Z,13.68
2023-07-08T02:07:20.291Z,13.51
2023-07-08T02:08:28.714Z,13.55
2023-07-08T02:10:33.142Z,13.48
2023-07-08T02:11:41.852Z,13.42
2023-07-08T02:12:46.662Z,13.27
2023-07-08T02:13:47.311Z,13.36
2023-07-08T02:14:22.109Z,13.33
2023-07-08T02:15:22.187Z,13.20
2023-07-08T02:16:25.000Z,13.28
2023-07-08T02:17:32.708Z,13.26
2023-07-08T02:18:21.468Z,13.26
2023-07-08T02:19:32.271Z,13.24
2023-07-08T02:20:35.052Z,13.24
2023-07-08T02:21:14.247Z,13.23
2023-07-08T02:22:21.221Z,13.23
2023-07-08T02:23:38.461Z,13.18
2023-07-08T02:24:23.636Z,13.20
2023-07-08T02:25:07.147Z,13.23
2023-07-08T02:25:45.439Z,13.23
2023-07-08T02:27:37.346Z,13.23
2023-07-08T02:28:23.324Z,13.19
2023-07-08T02:29:17.162Z,13.15
2023-07-08T02:30:34.696Z,13.18
2023-07-08T02:31:22.024Z,13.09
2023-07-08T02:32:35.246Z,13.13
2023-07-08T02:33:19.986Z,13.12
2023-07-08T02:34:06.066Z,13.12
2023-07-08T02:35:04.872Z,13.10
2023-07-08T02:36:23.481Z,13.04
2023-07-08T02:37:23.236Z,12.98
2023-07-08T02:38:18.418Z,12.96
2023-07-08T02:39:17.957Z,12.89
2023-07-08T02:40:08.303Z,12.87
2023-07-08T02:41:14.870Z,12.82
2023-07-08T02:41:53.432Z,12.80
2023-07-08T02:42:40.307Z,12.80
2023-07-08T02:45:22.084Z,12.69
2023-07-08T02:46:11.369Z,12.63
2023-07-08T02:47:06.567Z,12.53
2023-07-08T02:49:17.515Z,12.63
2023-07-08T02:52:40.000Z,12.47
2023-07-08T02:53:57.811Z,12.51
2023-07-08T02:55:51.619Z,12.50
2023-07-08T02:56:22.533Z,12.48
2023-07-08T02:57:09.406Z,12.46
2023-07-08T02:57:43.822Z,12.46
2023-07-08T02:58:37.239Z,12.45
2023-07-08T03:01:13.116Z,12.36
2023-07-08T03:02:06.506Z,12.47
2023-07-08T03:02:49.492Z,12.48
2023-07-08T03:03:33.580Z,12.48
2023-07-08T03:04:15.691Z,12.41
2023-07-08T03:05:06.288Z,12.49
2023-07-08T03:05:47.856Z,12.48
2023-07-08T03:06:24.830Z,12.48
2023-07-08T03:07:15.402Z,12.48
2023-07-08T03:08:24.771Z,12.43
2023-07-08T03:09:19.499Z,12.46
2023-07-08T03:11:52.316Z,12.47
2023-07-08T03:13:06.923Z,12.24
2023-07-08T03:14:04.869Z,12.42
2023-07-08T03:14:51.620Z,12.40
2023-07-08T03:15:36.247Z,12.45
2023-07-08T03:16:20.414Z,12.45
2023-07-08T03:17:37.171Z,12.46
2023-07-08T03:18:13.782Z,12.44
2023-07-08T03:19:04.240Z,12.35
2023-07-08T03:19:52.955Z,12.45
2023-07-08T03:22:48.480Z,12.42
2023-07-08T03:24:06.406Z,12.15
2023-07-08T03:25:33.743Z,12.31
2023-07-08T03:27:33.021Z,12.31
2023-07-08T03:29:21.649Z,12.26
2023-07-08T03:30:57.653Z,12.22
2023-07-08T03:33:13.801Z,12.14
2023-07-08T03:34:06.165Z,12.14
2023-07-08T03:35:38.647Z,12.02
2023-07-08T03:37:14.592Z,12.06
2023-07-08T03:39:06.489Z,12.06
2023-07-08T03:39:46.969Z,12.04
2023-07-08T03:41:37.338Z,12.01
2023-07-08T03:42:36.802Z,12.03
2023-07-08T03:43:53.303Z,12.03
2023-07-08T03:44:43.433Z,11.91
2023-07-08T03:45:41.455Z,12.03
2023-07-08T03:46:19.141Z,12.03
2023-07-08T03:46:53.221Z,12.00
2023-07-08T03:48:19.594Z,12.01
2023-07-08T03:49:08.803Z,12.01
2023-07-08T03:50:33.338Z,11.89
2023-07-08T03:51:50.442Z,11.98
2023-07-08T03:52:36.893Z,11.94
2023-07-08T03:53:34.364Z,11.94
2023-07-08T03:54:20.773Z,11.95
2023-07-08T03:55:09.798Z,11.90
2023-07-08T03:55:50.772Z,11.95
2023-07-08T03:56:45.199Z,11.93
2023-07-08T03:57:35.581Z,11.97
2023-07-08T03:58:16.141Z,11.97
2023-07-08T03:58:54.963Z,11.98
2023-07-08T03:59:34.873Z,11.92
2023-07-08T04:01:19.960Z,11.85
2023-07-08T04:01:55.118Z,11.93
2023-07-08T04:02:35.411Z,11.90
2023-07-08T04:03:13.782Z,11.96
2023-07-08T04:03:58.917Z,11.97
2023-07-08T04:04:38.825Z,11.94
2023-07-08T04:05:23.523Z,11.96
2023-07-08T04:06:24.332Z,11.98
2023-07-08T04:07:12.318Z,11.96
2023-07-08T04:07:58.368Z,11.95
2023-07-08T04:08:42.165Z,11.94
2023-07-08T04:09:21.434Z,12.00
2023-07-08T04:10:43.716Z,12.02
2023-07-08T04:11:36.294Z,11.99
2023-07-08T04:12:21.164Z,12.00
2023-07-08T04:13:05.212Z,12.01
2023-07-08T04:13:49.178Z,12.02
2023-07-08T04:14:37.134Z,12.04
2023-07-08T04:15:17.431Z,12.05
2023-07-08T04:16:04.647Z,12.06
2023-07-08T04:16:59.228Z,12.05
2023-07-08T04:18:05.799Z,12.08
2023-07-08T04:19:09.028Z,12.07
2023-07-08T04:19:50.803Z,12.08
2023-07-08T04:21:22.218Z,12.11
2023-07-08T04:21:39.817Z,12.06
2023-07-08T04:22:38.420Z,12.13
2023-07-08T04:23:21.396Z,12.06
2023-07-08T04:24:21.988Z,12.18
2023-07-08T04:25:06.746Z,12.19
2023-07-08T04:26:07.711Z,12.21
2023-07-08T04:27:02.214Z,12.23
2023-07-08T04:27:45.267Z,12.22
2023-07-08T04:28:21.255Z,12.18
2023-07-08T04:29:21.355Z,12.23
2023-07-08T04:30:33.688Z,12.28
2023-07-08T04:31:23.171Z,12.27
2023-07-08T04:32:15.213Z,12.29
2023-07-08T04:33:03.866Z,12.30
2023-07-08T04:34:42.923Z,12.32
2023-07-08T04:35:20.474Z,12.31
2023-07-08T04:37:29.680Z,12.39
2023-07-08T04:38:34.027Z,12.40
2023-07-08T04:39:25.071Z,12.39
2023-07-08T04:40:37.546Z,12.43
2023-07-08T04:41:16.732Z,12.44
2023-07-08T04:43:15.698Z,12.47
2023-07-08T04:44:06.348Z,12.48
2023-07-08T04:44:44.250Z,12.51
2023-07-08T04:45:24.834Z,12.52
2023-07-08T04:46:35.748Z,12.53
2023-07-08T04:47:13.024Z,12.55
2023-07-08T04:48:03.347Z,12.57
2023-07-08T04:48:40.778Z,12.59
2023-07-08T04:49:20.746Z,12.61
2023-07-08T04:50:01.598Z,12.63
2023-07-08T04:52:12.817Z,12.68
2023-07-08T04:53:11.969Z,12.59
2023-07-08T04:53:46.634Z,12.75
2023-07-08T04:54:23.252Z,12.73
2023-07-08T04:55:04.398Z,12.83
2023-07-08T04:55:51.410Z,12.88
2023-07-08T04:56:33.144Z,12.91
2023-07-08T04:57:08.648Z,12.94
2023-07-08T04:57:52.744Z,12.98
2023-07-08T04:58:35.806Z,13.02
2023-07-08T04:59:20.136Z,13.05
2023-07-08T05:00:13.123Z,13.07
2023-07-08T05:01:13.283Z,13.09
2023-07-08T05:01:49.974Z,13.12
2023-07-08T05:02:26.483Z,13.13
2023-07-08T05:03:09.945Z,13.22
2023-07-08T05:03:47.805Z,13.24
2023-07-08T05:04:24.269Z,13.29
2023-07-08T05:05:03.185Z,13.33
2023-07-08T05:05:36.012Z,13.37
2023-07-08T05:06:08.464Z,13.40
2023-07-08T05:06:40.874Z,13.44
2023-07-08T05:07:14.311Z,13.47
2023-07-08T05:07:46.901Z,13.51
2023-07-08T05:08:19.206Z,13.53
2023-07-08T05:08:54.394Z,13.53
2023-07-08T05:09:27.748Z,13.61
2023-07-08T05:10:01.326Z,13.66
2023-07-08T05:10:35.371Z,13.67
2023-07-08T05:11:11.059Z,13.72
2023-07-08T05:11:43.897Z,13.77
2023-07-08T05:12:21.929Z,13.81
2023-07-08T05:13:06.542Z,13.85
2023-07-08T05:13:39.070Z,13.86
2023-07-08T05:14:13.860Z,13.93
2023-07-08T05:14:46.492Z,13.97
2023-07-08T05:15:19.009Z,14.01
2023-07-08T05:15:51.199Z,14.05
2023-07-08T05:16:23.535Z,14.10
2023-07-08T05:16:57.898Z,14.14
2023-07-08T05:17:30.650Z,14.18
2023-07-08T05:18:03.516Z,14.23
2023-07-08T05:18:35.948Z,14.28
2023-07-08T05:19:08.440Z,14.32
2023-07-08T05:19:42.322Z,14.38
2023-07-08T05:20:15.799Z,14.42
2023-07-08T05:20:52.511Z,14.47
2023-07-08T05:21:28.145Z,14.52
2023-07-08T05:22:00.669Z,14.57
2023-07-08T05:22:33.247Z,14.61
2023-07-08T05:23:05.634Z,14.67
2023-07-08T05:23:47.797Z,14.72
2023-07-08T05:24:21.483Z,14.79
2023-07-08T05:24:57.321Z,14.83
2023-07-08T05:25:36.646Z,14.88
2023-07-08T05:26:12.840Z,14.94
2023-07-08T05:26:45.674Z,14.99
2023-07-08T05:27:18.604Z,15.03
2023-07-08T05:27:51.080Z,15.05
2023-07-08T05:28:25.611Z,15.17
2023-07-08T05:28:58.739Z,15.16
2023-07-08T05:29:31.414Z,15.29
2023-07-08T05:30:06.217Z,15.35
2023-07-08T05:30:41.723Z,15.41
2023-07-08T05:31:14.791Z,15.48
2023-07-08T05:31:48.580Z,15.53
2023-07-08T05:32:22.192Z,15.59
2023-07-08T05:32:55.459Z,15.60
2023-07-08T05:33:30.530Z,15.70
2023-07-08T05:34:09.483Z,15.75
2023-07-08T05:34:42.140Z,15.83
2023-07-08T05:35:14.802Z,15.90
2023-07-08T05:35:47.407Z,15.96
2023-07-08T05:36:19.951Z,16.03
2023-07-08T05:36:52.307Z,16.08
2023-07-08T05:37:25.999Z,16.14
2023-07-08T05:37:58.390Z,16.20
2023-07-08T05:38:30.782Z,16.25
2023-07-08T05:39:03.899Z,16.30
2023-07-08T05:39:36.732Z,16.35
2023-07-08T05:40:10.118Z,16.41
2023-07-08T05:40:43.469Z,16.48
2023-07-08T05:41:16.027Z,16.52
2023-07-08T05:41:48.453Z,16.58
2023-07-08T05:42:22.168Z,16.63
2023-07-08T05:42:54.691Z,16.68
2023-07-08T05:43:27.644Z,16.75
2023-07-08T05:44:00.046Z,16.80
2023-07-08T05:44:32.702Z,16.84
2023-07-08T05:45:14.279Z,16.87
2023-07-08T05:46:09.312Z,16.95
2023-07-08T05:46:43.739Z,16.99
2023-07-08T05:47:16.614Z,17.04
2023-07-08T05:47:49.216Z,17.08
2023-07-08T05:48:21.400Z,17.13
2023-07-08T05:48:54.767Z,17.17
2023-07-08T05:49:27.226Z,17.23
2023-07-08T05:49:59.697Z,17.25
2023-07-08T05:50:32.348Z,17.26
2023-07-08T05:51:04.803Z,17.34
2023-07-08T05:51:37.815Z,17.30
2023-07-08T05:52:16.840Z,17.39
2023-07-08T05:52:49.026Z,17.43
2023-07-08T05:53:21.246Z,17.47
2023-07-08T05:53:53.549Z,17.50
2023-07-08T05:54:25.947Z,17.54
2023-07-08T05:54:59.680Z,17.57
2023-07-08T05:55:34.506Z,17.62
2023-07-08T05:56:06.636Z,17.65
2023-07-08T05:56:39.186Z,17.68
2023-07-08T05:57:13.654Z,17.70
2023-07-08T05:57:45.904Z,17.73
2023-07-08T05:58:25.913Z,17.77
2023-07-08T05:58:59.042Z,17.80
2023-07-08T05:59:31.423Z,17.81
2023-07-08T06:00:04.907Z,17.84
2023-07-08T06:00:44.817Z,17.87
2023-07-08T06:01:17.234Z,17.88
2023-07-08T06:01:49.945Z,17.92
2023-07-08T06:02:23.888Z,17.95
2023-07-08T06:02:56.167Z,17.97
2023-07-08T06:03:28.612Z,18.00
2023-07-08T06:04:01.397Z,18.03
2023-07-08T06:04:34.257Z,18.06
2023-07-08T06:05:06.841Z,18.11
2023-07-08T06:05:39.286Z,18.12
2023-07-08T06:06:11.851Z,18.13
2023-07-08T06:06:44.084Z,18.18
2023-07-08T06:07:17.459Z,18.20
2023-07-08T06:07:49.897Z,18.22
2023-07-08T06:08:22.843Z,18.25
2023-07-08T06:08:55.258Z,18.26
2023-07-08T06:09:27.687Z,18.29
2023-07-08T06:10:00.183Z,18.31
2023-07-08T06:10:32.513Z,18.34
2023-07-08T06:11:04.973Z,18.37
2023-07-08T06:11:37.329Z,18.40
2023-07-08T06:12:09.858Z,18.40
2023-07-08T06:12:42.173Z,18.46
2023-07-08T06:13:15.243Z,18.48
2023-07-08T06:13:47.472Z,18.52
2023-07-08T06:14:19.721Z,18.55
2023-07-08T06:14:54.766Z,18.59
2023-07-08T06:15:39.247Z,18.63
2023-07-08T06:16:18.238Z,18.65
2023-07-08T06:16:55.961Z,18.69
2023-07-08T06:17:28.323Z,18.71
2023-07-08T06:18:03.016Z,18.75
2023-07-08T06:18:35.858Z,18.80
2023-07-08T06:19:08.574Z,18.84
2023-07-08T06:19:40.817Z,18.89
2023-07-08T06:20:13.039Z,18.96
2023-07-08T06:20:55.942Z,19.05
2023-07-08T06:21:28.286Z,19.18
2023-07-08T06:22:19.768Z,19.29
2023-07-08T06:22:57.338Z,19.46
2023-07-08T06:23:30.154Z,19.50
2023-07-08T06:24:02.517Z,19.71
2023-07-08T06:24:35.016Z,19.82
2023-07-08T06:25:09.405Z,19.93
2023-07-08T06:25:45.133Z,20.02
2023-07-08T06:26:17.567Z,20.07
2023-07-08T06:27:25.776Z,20.30
2023-07-08T06:27:58.154Z,20.38
2023-07-08T06:28:30.552Z,20.46
2023-07-08T06:29:03.345Z,20.52
2023-07-08T06:29:35.611Z,20.64
2023-07-08T06:30:09.141Z,20.75
2023-07-08T06:30:41.377Z,20.82
2023-07-08T06:31:13.635Z,20.92
2023-07-08T06:31:46.056Z,20.98
2023-07-08T06:32:18.293Z,21.04
2023-07-08T06:32:50.639Z,21.11
2023-07-08T06:33:22.924Z,21.19
2023-07-08T06:33:55.627Z,21.27
2023-07-08T06:34:28.078Z,21.33
2023-07-08T06:35:00.311Z,21.40
2023-07-08T06:35:32.823Z,21.47
2023-07-08T06:36:05.284Z,21.53
2023-07-08T06:36:37.722Z,21.60
2023-07-08T06:37:10.056Z,21.68
2023-07-08T06:37:42.204Z,21.76
2023-07-08T06:38:14.728Z,21.83
2023-07-08T06:38:47.157Z,21.93
2023-07-08T06:39:19.912Z,22.02
2023-07-08T06:39:52.132Z,22.12
2023-07-08T06:40:24.432Z,22.21
2023-07-08T06:40:56.727Z,22.31
2023-07-08T06:41:30.998Z,22.39
2023-07-08T06:42:04.702Z,22.44
2023-07-08T06:42:37.135Z,22.57
2023-07-08T06:43:27.085Z,22.69
2023-07-08T06:44:10.441Z,22.80
2023-07-08T06:44:52.119Z,22.86
2023-07-08T06:45:26.326Z,22.88
2023-07-08T06:45:58.663Z,22.98
2023-07-08T06:46:31.215Z,23.05
2023-07-08T06:47:03.914Z,23.09
2023-07-08T06:47:36.545Z,23.11
2023-07-08T06:48:09.052Z,23.12
2023-07-08T06:48:41.325Z,23.14
2023-07-08T06:49:13.728Z,23.12
2023-07-08T06:49:46.281Z,23.11
2023-07-08T06:50:24.608Z,23.11
2023-07-08T06:51:03.515Z,23.14
2023-07-08T06:51:36.668Z,23.15
2023-07-08T06:52:09.141Z,23.15
2023-07-08T06:52:42.210Z,23.19
2023-07-08T06:53:16.194Z,23.25
2023-07-08T06:53:49.022Z,23.33
2023-07-08T06:54:21.661Z,23.41
2023-07-08T06:54:54.367Z,23.48
2023-07-08T06:55:31.383Z,23.56
2023-07-08T06:56:04.010Z,23.67
2023-07-08T06:56:36.502Z,23.76
2023-07-08T06:57:09.140Z,23.83
2023-07-08T06:57:41.712Z,23.85
2023-07-08T06:58:14.402Z,23.93
2023-07-08T06:58:49.302Z,23.98
2023-07-08T06:59:21.783Z,24.07
2023-07-08T06:59:54.205Z,24.15
2023-07-08T07:00:26.591Z,24.15
2023-07-08T07:00:59.599Z,24.10
2023-07-08T07:01:33.430Z,24.17
2023-07-08T07:02:17.704Z,24.18
2023-07-08T07:02:59.627Z,24.21
2023-07-08T07:03:35.682Z,24.25
2023-07-08T07:04:14.091Z,24.38
2023-07-08T07:04:56.846Z,24.51
2023-07-08T07:05:36.420Z,24.59
2023-07-08T07:06:13.314Z,24.53
2023-07-08T07:06:45.996Z,24.64
2023-07-08T07:07:20.882Z,24.67
2023-07-08T07:07:53.651Z,24.71
2023-07-08T07:08:32.121Z,24.71
2023-07-08T07:09:12.895Z,24.78
2023-07-08T07:09:51.083Z,24.91
2023-07-08T07:10:24.943Z,25.01
2023-07-08T07:11:06.608Z,25.12
2023-07-08T07:11:44.000Z,25.26
2023-07-08T07:12:20.454Z,25.35
2023-07-08T07:12:53.658Z,25.45
2023-07-08T07:13:34.699Z,25.53
2023-07-08T07:14:51.011Z,25.76
2023-07-08T07:15:35.953Z,25.90
2023-07-08T07:16:13.776Z,26.08
2023-07-08T07:17:02.406Z,26.24
2023-07-08T07:17:47.274Z,26.42
2023-07-08T07:18:31.861Z,26.55
2023-07-08T07:19:07.153Z,26.70
2023-07-08T07:19:41.412Z,26.79
2023-07-08T07:20:33.310Z,26.86
2023-07-08T07:21:13.588Z,26.96
2023-07-08T07:21:49.072Z,26.97
2023-07-08T07:22:24.394Z,27.04
2023-07-08T07:23:03.654Z,27.09
2023-07-08T07:23:44.349Z,27.18
2023-07-08T07:24:24.812Z,27.22
2023-07-08T07:25:02.769Z,27.25
2023-07-08T07:25:35.680Z,27.43
2023-07-08T07:26:17.529Z,27.44
2023-07-08T07:26:57.447Z,27.39
2023-07-08T07:27:33.060Z,27.44
2023-07-08T07:28:14.969Z,27.49
2023-07-08T07:28:50.874Z,27.51
2023-07-08T07:29:24.500Z,27.51
2023-07-08T07:30:25.748Z,27.49
2023-07-08T07:31:18.129Z,27.43
2023-07-08T07:32:04.368Z,27.42
2023-07-08T07:32:51.395Z,27.36
2023-07-08T07:33:29.146Z,27.39
2023-07-08T07:34:05.347Z,27.31
2023-07-08T07:34:51.742Z,27.32
2023-07-08T07:35:36.383Z,27.31
2023-07-08T07:36:18.440Z,27.33
2023-07-08T07:36:51.203Z,27.37
2023-07-08T07:37:40.978Z,27.45
2023-07-08T07:38:19.790Z,27.58
2023-07-08T07:38:55.026Z,27.66
2023-07-08T07:40:38.363Z,27.62
2023-07-08T07:41:46.782Z,27.59
2023-07-08T07:42:40.085Z,27.63
2023-07-08T07:43:15.566Z,27.65
2023-07-08T07:43:53.323Z,27.71
2023-07-08T07:44:29.514Z,27.79
2023-07-08T07:45:08.404Z,27.84
2023-07-08T07:46:15.562Z,27.84
2023-07-08T07:47:12.373Z,27.71
2023-07-08T07:47:46.019Z,27.80
2023-07-08T07:48:51.193Z,27.82
2023-07-08T07:49:33.861Z,27.77
2023-07-08T07:50:34.092Z,27.85
2023-07-08T07:51:26.609Z,27.85
2023-07-08T07:52:15.602Z,27.91
2023-07-08T07:53:16.599Z,27.86
2023-07-08T07:53:52.575Z,27.96
2023-07-08T07:54:25.612Z,27.98
2023-07-08T07:55:06.205Z,27.97
2023-07-08T07:55:50.051Z,28.03
2023-07-08T07:56:41.164Z,27.99
2023-07-08T07:57:18.839Z,27.96
2023-07-08T07:58:04.035Z,27.98
2023-07-08T07:58:38.338Z,28.03
2023-07-08T07:59:28.566Z,27.96
2023-07-08T08:00:20.006Z,28.02
2023-07-08T08:04:33.814Z,27.96
2023-07-08T08:05:47.484Z,27.90
2023-07-08T08:15:50.642Z,28.15
2023-07-08T08:17:05.694Z,28.17
2023-07-08T08:18:36.311Z,28.13
2023-07-08T08:21:20.660Z,28.16
2023-07-08T08:22:12.861Z,28.09
2023-07-08T08:22:39.763Z,28.32
2023-07-08T08:27:58.185Z,28.61
2023-07-08T08:33:34.710Z,28.82
2023-07-08T08:34:27.203Z,28.87
2023-07-08T08:35:39.544Z,28.93
2023-07-08T08:36:23.522Z,29.02
2023-07-08T08:37:33.475Z,29.05
2023-07-08T08:40:01.593Z,29.13
2023-07-08T08:40:50.631Z,29.18
2023-07-08T08:41:50.638Z,29.22
2023-07-08T08:43:12.109Z,29.33
2023-07-08T08:44:15.859Z,29.27
2023-07-08T08:45:35.749Z,29.18
2023-07-08T08:46:24.637Z,29.17
2023-07-08T08:47:35.430Z,29.16
2023-07-08T08:48:12.668Z,29.29
2023-07-08T08:49:01.075Z,29.37
2023-07-08T08:49:43.545Z,29.42
2023-07-08T08:50:40.253Z,29.47
2023-07-08T08:51:17.272Z,29.57
2023-07-08T08:51:52.243Z,29.70
2023-07-08T08:52:25.922Z,29.78
2023-07-08T08:53:02.419Z,29.88
2023-07-08T08:53:36.325Z,29.91
2023-07-08T08:54:10.663Z,29.93
2023-07-08T08:54:45.003Z,29.97
2023-07-08T08:55:19.152Z,30.00
2023-07-08T08:56:24.236Z,30.06
2023-07-08T08:57:08.363Z,30.05
2023-07-08T08:57:49.431Z,30.12
2023-07-08T08:58:37.174Z,30.12
2023-07-08T08:59:55.203Z,30.16
2023-07-08T09:00:56.369Z,30.16
2023-07-08T09:01:31.058Z,30.15
2023-07-08T09:02:28.186Z,30.15
2023-07-08T09:03:17.351Z,29.96
2023-07-08T09:03:56.303Z,29.77
2023-07-08T09:04:37.001Z,29.79
2023-07-08T09:05:13.372Z,29.85
2023-07-08T09:05:48.471Z,29.86
2023-07-08T09:06:27.777Z,29.88
2023-07-08T09:07:14.354Z,29.84
2023-07-08T09:08:21.830Z,29.73
2023-07-08T09:08:57.727Z,29.49
2023-07-08T09:09:37.780Z,29.47
2023-07-08T09:10:22.047Z,29.51
2023-07-08T09:11:05.297Z,29.49
2023-07-08T09:12:04.164Z,29.37
2023-07-08T09:12:38.214Z,29.21
2023-07-08T09:13:33.534Z,29.17
2023-07-08T09:14:17.713Z,29.05
2023-07-08T09:14:52.527Z,29.03
2023-07-08T09:15:28.055Z,29.11
2023-07-08T09:16:31.211Z,29.15
2023-07-08T09:17:37.863Z,29.26
2023-07-08T09:18:21.348Z,29.29
2023-07-08T09:19:18.193Z,29.23
2023-07-08T09:20:32.182Z,29.30
2023-07-08T09:21:19.785Z,29.32
2023-07-08T09:21:53.491Z,29.35
2023-07-08T09:22:47.650Z,29.33
2023-07-08T09:23:31.973Z,29.38
2023-07-08T09:24:15.240Z,29.46
2023-07-08T09:25:05.005Z,29.54
2023-07-08T09:25:44.591Z,29.67
2023-07-08T09:26:24.573Z,29.84
2023-07-08T09:27:02.371Z,29.98
2023-07-08T09:27:36.220Z,30.06
2023-07-08T09:28:10.355Z,30.17
2023-07-08T09:28:46.890Z,30.33
2023-07-08T09:29:23.335Z,30.39
2023-07-08T09:29:57.845Z,30.53
2023-07-08T09:30:32.197Z,30.53
2023-07-08T09:31:08.765Z,30.52
2023-07-08T09:31:44.037Z,30.57
2023-07-08T09:32:21.610Z,30.54
2023-07-08T09:32:56.064Z,30.42
2023-07-08T09:33:30.892Z,30.43
2023-07-08T09:34:10.016Z,30.42
2023-07-08T09:35:09.225Z,30.33
2023-07-08T09:35:47.742Z,30.33
2023-07-08T09:36:26.157Z,30.40
2023-07-08T09:37:00.238Z,30.44
2023-07-08T09:37:39.218Z,30.51
2023-07-08T09:38:23.830Z,30.61
2023-07-08T09:38:57.893Z,30.66
2023-07-08T09:39:31.995Z,30.66
2023-07-08T09:40:16.946Z,30.71
2023-07-08T09:40:55.178Z,30.83
2023-07-08T09:41:36.379Z,30.95
2023-07-08T09:42:10.996Z,31.12
2023-07-08T09:42:48.276Z,31.24
2023-07-08T09:43:37.845Z,31.39
2023-07-08T09:44:19.788Z,31.33
2023-07-08T09:45:01.194Z,31.28
2023-07-08T09:45:44.328Z,31.27
2023-07-08T09:46:18.906Z,31.13
2023-07-08T09:46:56.395Z,31.16
2023-07-08T09:47:36.598Z,31.14
2023-07-08T09:48:19.297Z,31.17
2023-07-08T09:48:53.359Z,31.08
2023-07-08T09:49:37.051Z,31.02
2023-07-08T09:50:29.112Z,31.09
2023-07-08T09:51:04.218Z,30.97
2023-07-08T09:51:39.293Z,30.96
2023-07-08T09:52:14.062Z,31.02
2023-07-08T09:52:49.846Z,30.92
2023-07-08T09:53:23.939Z,30.89
2023-07-08T09:53:57.740Z,30.96
2023-07-08T09:54:32.621Z,30.94
2023-07-08T09:55:14.269Z,30.93
2023-07-08T09:55:48.926Z,30.95
2023-07-08T09:56:22.833Z,30.97
2023-07-08T09:56:59.791Z,30.99
2023-07-08T09:57:35.282Z,30.96
2023-07-08T09:58:16.159Z,30.81
2023-07-08T09:58:53.218Z,30.80
2023-07-08T09:59:33.110Z,30.75
2023-07-08T10:00:14.571Z,30.74
2023-07-08T10:00:58.360Z,30.91
2023-07-08T10:01:32.882Z,30.99
2023-07-08T10:02:23.438Z,31.13
2023-07-08T10:03:03.263Z,31.15
2023-07-08T10:03:40.934Z,31.07
2023-07-08T10:04:20.708Z,31.07
2023-07-08T10:04:59.199Z,31.07
2023-07-08T10:05:53.453Z,31.09
2023-07-08T10:06:31.937Z,31.15
2023-07-08T10:07:13.502Z,31.19
2023-07-08T10:07:56.493Z,31.11